Port Renfrew, Canada
Current Conditions -  °F | °C
As of 11:53 PM on Sunday 21 Dec 2014 (Local Time) from KUIL Reporting Station
Haze Haze  
Wind Chill: 50°   Ceiling: Unl
Heat Index: 50°   Visibility: 6mi
Dew Point: 45°   Wind: 5mph
Humidity: 83%   Direction: 300°WNW
Pressure: 30.16"   Gusts: NA
Location:  48.55°N, 124.42°W
Report Text: KUIL 220753Z AUTO 30004KT 6SM HZ FEW026 10/07 A3016 RMK AO2 SLP212 T01000072 401170094 $
Loading
Personal Weather Stations






























Interactive Weather Map New forecast layout! Learn more

10-Day Weather Forecast

Advertisements
Track Severe Weather on mobile